createdAt,value
2022-12-03T16:45:33.665Z,101987.81
2022-12-03T16:48:37.794Z,101985.81
2022-12-03T16:51:41.657Z,101987.84
2022-12-03T16:54:45.415Z,101985.72
2022-12-03T16:57:49.389Z,101980.69
2022-12-03T17:00:55.460Z,101984.50
2022-12-03T17:03:59.200Z,101981.38
2022-12-03T17:07:03.289Z,101983.09
2022-12-03T17:10:08.098Z,101984.00
2022-12-03T17:13:12.113Z,101989.41
2022-12-03T17:16:17.364Z,101978.63
2022-12-03T17:19:21.301Z,101979.81
2022-12-03T17:22:25.240Z,101980.44
2022-12-03T17:25:29.636Z,101979.59
2022-12-03T17:28:33.482Z,101985.47
2022-12-03T17:31:42.195Z,101992.13
2022-12-03T17:34:46.454Z,101986.56
2022-12-03T17:37:50.339Z,101989.91
2022-12-03T17:40:54.527Z,101984.38
2022-12-03T17:43:58.296Z,101984.13
2022-12-03T17:47:03.513Z,101980.06
2022-12-03T17:50:08.970Z,101982.69
2022-12-03T17:53:12.765Z,101977.59
2022-12-03T17:56:16.491Z,101981.31
2022-12-03T17:59:20.290Z,101986.91
2022-12-03T18:02:25.435Z,101989.41
2022-12-03T18:05:29.204Z,101983.75
2022-12-03T18:08:32.961Z,101983.88
2022-12-03T18:11:36.811Z,101984.38
2022-12-03T18:14:40.572Z,101985.00
2022-12-03T18:17:45.770Z,101979.13
2022-12-03T18:20:49.605Z,101979.81
2022-12-03T18:23:53.574Z,101983.50
2022-12-03T18:26:57.433Z,101977.59
2022-12-03T18:30:02.059Z,101983.28
2022-12-03T18:33:07.221Z,101981.16
2022-12-03T18:36:18.692Z,101981.63
2022-12-03T18:39:28.133Z,101988.16
2022-12-03T18:42:32.429Z,101978.94
2022-12-03T18:45:36.171Z,101978.31
2022-12-03T18:48:41.531Z,101982.41
2022-12-03T18:51:45.338Z,101971.72
2022-12-03T18:54:49.597Z,101979.94
2022-12-03T18:57:54.470Z,101983.16
2022-12-03T19:00:58.637Z,101985.47
2022-12-03T19:04:04.344Z,101992.88
2022-12-03T19:07:08.187Z,101991.72
2022-12-03T19:10:13.516Z,101990.81
2022-12-03T19:13:17.287Z,101983.25
2022-12-03T19:16:21.169Z,101974.81
2022-12-03T19:19:27.411Z,101972.44
2022-12-03T19:22:31.286Z,101980.75
2022-12-03T19:25:35.152Z,101982.72
2022-12-03T19:28:39.294Z,101992.56
2022-12-03T19:31:43.089Z,101988.91
2022-12-03T19:34:48.317Z,101988.16
2022-12-03T19:37:52.370Z,101992.44
2022-12-03T19:40:59.909Z,101990.03
2022-12-03T19:44:07.877Z,101998.00
2022-12-03T19:47:14.596Z,101996.28
2022-12-03T19:50:23.227Z,101996.69
2022-12-03T19:53:27.920Z,101993.69
2022-12-03T19:56:31.765Z,101997.59
2022-12-03T19:59:35.764Z,101996.56
2022-12-03T20:02:39.593Z,101996.81
2022-12-03T20:05:44.803Z,102000.78
2022-12-03T20:08:49.967Z,101991.41
2022-12-03T20:11:53.913Z,102001.19
2022-12-03T20:14:57.755Z,101994.66
2022-12-03T20:18:01.762Z,102006.84
2022-12-03T20:21:07.964Z,101997.91
2022-12-03T20:24:15.160Z,102002.56
2022-12-03T20:27:22.859Z,102002.19
2022-12-03T20:30:26.871Z,101999.47
2022-12-03T20:33:31.197Z,101990.56
2022-12-03T20:36:36.417Z,101991.13
2022-12-03T20:39:40.422Z,101997.44
2022-12-03T20:42:48.156Z,101987.44
2022-12-03T20:46:11.117Z,101986.97
2022-12-03T20:49:14.926Z,101986.69
2022-12-03T20:52:19.977Z,101973.06
2022-12-03T20:55:23.692Z,101972.94
2022-12-03T20:58:28.912Z,101965.31
2022-12-03T21:01:32.902Z,101958.59
2022-12-03T21:04:36.680Z,101969.41
2022-12-03T21:07:41.919Z,101956.47
2022-12-03T21:10:45.997Z,101958.44
2022-12-03T21:13:50.014Z,101960.53
2022-12-03T21:17:09.830Z,101960.19
2022-12-03T21:20:17.996Z,101952.78
2022-12-03T21:23:26.518Z,101960.88
2022-12-03T21:26:30.525Z,101966.28
2022-12-03T21:29:34.417Z,101972.88
2022-12-03T21:32:38.242Z,101972.81
2022-12-03T21:35:42.256Z,101969.28
2022-12-03T21:38:48.312Z,101971.19
2022-12-03T21:42:18.900Z,101964.84
2022-12-03T21:45:16.867Z,101975.91
2022-12-03T21:48:21.357Z,101973.91
2022-12-03T21:51:25.398Z,101973.31
2022-12-03T21:54:30.670Z,101973.66
2022-12-03T21:57:36.452Z,101968.69
2022-12-03T22:00:40.420Z,101977.59
2022-12-03T22:03:44.399Z,101971.59
2022-12-03T22:06:48.349Z,101963.84
2022-12-03T22:09:53.949Z,101963.84
2022-12-03T22:12:57.990Z,101961.16
2022-12-03T22:16:06.052Z,101970.63
2022-12-03T22:19:09.832Z,101959.91
2022-12-03T22:22:13.613Z,101969.03
2022-12-03T22:25:19.063Z,101963.41
2022-12-03T22:28:22.859Z,101965.06
2022-12-03T22:31:26.720Z,101965.56
2022-12-03T22:34:30.547Z,101961.38
2022-12-03T22:37:34.296Z,101971.22
2022-12-03T22:40:41.756Z,101972.44
2022-12-03T22:43:46.283Z,101972.84
2022-12-03T22:46:50.176Z,101960.53
2022-12-03T22:49:54.222Z,101965.91
2022-12-03T22:52:58.148Z,101964.13
2022-12-03T22:56:03.275Z,101966.56
2022-12-03T22:59:07.368Z,101959.19
2022-12-03T23:02:11.079Z,101964.34
2022-12-03T23:05:14.931Z,101962.34
2022-12-03T23:08:21.592Z,101964.34
2022-12-03T23:11:27.517Z,101951.31
2022-12-03T23:14:31.206Z,101947.59
2022-12-03T23:17:34.936Z,101958.31
2022-12-03T23:20:43.356Z,101956.97
2022-12-03T23:23:47.120Z,101955.38
2022-12-03T23:26:52.248Z,101951.78
2022-12-03T23:29:56.266Z,101960.16
2022-12-03T23:33:00.243Z,101964.34
2022-12-03T23:36:06.191Z,101957.44
2022-12-03T23:39:10.033Z,101954.50
2022-12-03T23:42:15.137Z,101945.75
2022-12-03T23:45:19.116Z,101952.16
2022-12-03T23:48:22.818Z,101950.94
2022-12-03T23:51:27.333Z,101953.03
2022-12-03T23:54:31.036Z,101955.00
2022-12-03T23:57:36.513Z,101947.38
